Time;durP1;ratioP1;P1;durP2;ratioP2;P2;SDS_P1;SDS_P2;PMS_P1;PMS_P2;Temp;Humidity;BMP_temperature;BMP_pressure;BME280_temperature;BME280_humidity;BME280_pressure;Samples;Min_cycle;Max_cycle;Signal;HPM_P1;HPM_P2
2021/11/21 00:00:13;;;;;;;;;11.50;11.50;;;;;;;;5044622;28;10534;-80
2021/11/21 00:02:41;;;;;;;;;12.00;10.00;;;;;;;;5043181;28;10582;-79
2021/11/21 00:05:08;;;;;;;;;11.25;11.25;;;;;;;;5044118;28;10509;-80
2021/11/21 00:07:36;;;;;;;;;15.50;13.00;;;;;;;;5049267;28;10362;-80
2021/11/21 00:10:04;;;;;;;;;13.00;9.25;;;;;;;;5031395;28;10541;-79
2021/11/21 00:12:34;;;;;;;;;16.00;14.00;;;;;;;;5039896;28;10445;-79
2021/11/21 00:15:01;;;;;;;;;11.00;11.00;;;;;;;;5044495;28;10424;-79
2021/11/21 00:17:28;;;;;;;;;10.00;10.00;;;;;;;;5044680;28;11420;-79
2021/11/21 00:19:56;;;;;;;;;10.75;10.25;;;;;;;;5025450;28;10453;-79
2021/11/21 00:22:24;;;;;;;;;13.00;13.00;;;;;;;;5043664;28;10638;-79
2021/11/21 00:24:52;;;;;;;;;12.00;12.00;;;;;;;;5018967;28;10575;-79
2021/11/21 00:27:21;;;;;;;;;16.50;12.75;;;;;;;;5043673;28;10850;-79
2021/11/21 00:29:53;;;;;;;;;15.50;13.50;;;;;;;;5044825;28;10811;-79
2021/11/21 00:32:20;;;;;;;;;14.75;12.50;;;;;;;;5037590;28;10710;-79
2021/11/21 00:34:48;;;;;;;;;11.00;11.00;;;;;;;;5044752;28;10726;-78
2021/11/21 00:37:16;;;;;;;;;12.75;11.00;;;;;;;;5043344;28;10664;-80
2021/11/21 00:39:43;;;;;;;;;11.25;10.25;;;;;;;;5038439;28;10719;-79
2021/11/21 00:42:14;;;;;;;;;10.00;10.00;;;;;;;;5031810;28;10808;-80
2021/11/21 00:44:42;;;;;;;;;4.00;4.00;;;;;;;;5022628;28;10639;-79
2021/11/21 00:47:12;;;;;;;;;10.00;9.50;;;;;;;;5044238;28;10804;-80
2021/11/21 00:49:40;;;;;;;;;11.25;8.00;;;;;;;;5038673;28;10682;-79
2021/11/21 00:52:08;;;;;;;;;6.00;6.00;;;;;;;;5044546;28;10675;-79
2021/11/21 00:54:46;;;;;;;;;6.50;6.50;;;;;;;;5043537;28;10833;-78
2021/11/21 00:57:13;;;;;;;;;14.25;10.00;;;;;;;;5042605;28;10813;-78
2021/11/21 00:59:40;;;;;;;;;6.25;5.50;;;;;;;;5044149;28;10870;-79
2021/11/21 01:02:09;;;;;;;;;10.75;8.00;;;;;;;;5037688;28;10724;-79
2021/11/21 01:04:41;;;;;;;;;8.50;6.00;;;;;;;;5044631;28;10790;-78
2021/11/21 01:07:09;;;;;;;;;6.50;6.00;;;;;;;;5041898;28;10773;-78
2021/11/21 01:09:37;;;;;;;;;7.00;6.00;;;;;;;;5042709;28;11559;-79
2021/11/21 01:12:05;;;;;;;;;10.25;7.75;;;;;;;;5042487;28;10685;-79
2021/11/21 01:14:32;;;;;;;;;6.00;6.00;;;;;;;;5043228;28;10836;-79
2021/11/21 01:17:00;;;;;;;;;5.50;5.50;;;;;;;;5040811;28;11523;-79
2021/11/21 01:19:27;;;;;;;;;5.75;3.50;;;;;;;;5030643;28;10976;-79
2021/11/21 01:21:56;;;;;;;;;4.00;4.00;;;;;;;;5043553;28;10781;-80
2021/11/21 01:24:24;;;;;;;;;3.50;3.50;;;;;;;;5043802;28;10806;-79
2021/11/21 01:26:51;;;;;;;;;5.25;5.25;;;;;;;;5041025;28;10948;-79
2021/11/21 01:29:19;;;;;;;;;6.00;3.00;;;;;;;;5042616;28;10922;-78
2021/11/21 01:31:47;;;;;;;;;10.00;7.50;;;;;;;;5042565;28;10883;-79
2021/11/21 01:34:15;;;;;;;;;13.25;10.25;;;;;;;;5033700;28;11043;-79
2021/11/21 01:36:44;;;;;;;;;8.50;6.25;;;;;;;;5042792;28;10951;-80
2021/11/21 01:39:13;;;;;;;;;5.00;5.00;;;;;;;;5042419;28;12282;-79
2021/11/21 01:41:40;;;;;;;;;8.00;6.00;;;;;;;;5038601;28;11128;-79
2021/11/21 01:44:10;;;;;;;;;5.25;5.25;;;;;;;;5043938;28;10958;-80
2021/11/21 01:46:40;;;;;;;;;10.00;6.25;;;;;;;;5041888;28;10851;-80
2021/11/21 01:49:08;;;;;;;;;9.00;9.00;;;;;;;;5040111;28;10921;-79
2021/11/21 01:51:35;;;;;;;;;6.50;6.00;;;;;;;;5042257;28;10915;-79
2021/11/21 01:54:02;;;;;;;;;6.75;6.75;;;;;;;;5041019;28;10993;-79
2021/11/21 01:56:31;;;;;;;;;7.00;7.00;;;;;;;;5043008;28;11059;-81
2021/11/21 01:58:59;;;;;;;;;9.25;6.00;;;;;;;;5043321;28;10946;-79
2021/11/21 02:01:26;;;;;;;;;12.00;7.00;;;;;;;;5040892;28;10927;-79
2021/11/21 02:03:54;;;;;;;;;10.00;7.00;;;;;;;;5021699;28;12276;-79
2021/11/21 02:06:22;;;;;;;;;8.75;8.75;;;;;;;;5042763;28;10941;-78
2021/11/21 02:08:52;;;;;;;;;9.00;7.00;;;;;;;;5042271;28;10941;-78
2021/11/21 02:11:20;;;;;;;;;9.75;8.00;;;;;;;;5042037;28;11492;-79
2021/11/21 02:13:50;;;;;;;;;10.50;6.50;;;;;;;;5039342;28;11771;-79
2021/11/21 02:16:18;;;;;;;;;13.50;12.00;;;;;;;;5039139;28;11180;-79
2021/11/21 02:18:45;;;;;;;;;10.50;9.00;;;;;;;;5043754;28;10954;-79
2021/11/21 02:21:15;;;;;;;;;9.25;8.00;;;;;;;;5003198;28;11122;-79
2021/11/21 02:23:42;;;;;;;;;12.50;11.00;;;;;;;;5043924;28;10947;-79
2021/11/21 02:26:10;;;;;;;;;10.00;10.00;;;;;;;;5042771;28;10983;-79
2021/11/21 02:28:38;;;;;;;;;18.50;14.25;;;;;;;;5041462;28;10886;-79
2021/11/21 02:31:06;;;;;;;;;11.00;11.00;;;;;;;;5044916;28;11097;-79
2021/11/21 02:33:34;;;;;;;;;19.25;15.00;;;;;;;;5042246;28;10949;-79
2021/11/21 02:36:03;;;;;;;;;15.50;15.50;;;;;;;;5038698;28;11139;-79
2021/11/21 02:38:31;;;;;;;;;13.50;13.50;;;;;;;;5047403;28;11025;-79
2021/11/21 02:41:00;;;;;;;;;13.25;11.50;;;;;;;;5042781;28;10957;-79
2021/11/21 02:43:28;;;;;;;;;15.50;15.50;;;;;;;;5038612;28;11001;-79
2021/11/21 02:45:57;;;;;;;;;19.00;13.75;;;;;;;;5041898;28;11967;-79
2021/11/21 02:48:28;;;;;;;;;11.50;11.50;;;;;;;;5046613;28;11110;-80
2021/11/21 02:50:56;;;;;;;;;17.50;17.50;;;;;;;;5046458;28;11816;-80
2021/11/21 02:53:25;;;;;;;;;20.50;14.25;;;;;;;;5041891;28;11087;-79
2021/11/21 02:55:56;;;;;;;;;17.00;13.75;;;;;;;;5045824;28;11269;-79
2021/11/21 02:58:24;;;;;;;;;19.00;15.00;;;;;;;;5043781;28;11921;-79
2021/11/21 03:00:52;;;;;;;;;20.50;19.75;;;;;;;;5043183;28;11034;-80
2021/11/21 03:03:19;;;;;;;;;19.75;14.50;;;;;;;;5041216;28;11082;-80
2021/11/21 03:05:46;;;;;;;;;14.00;14.00;;;;;;;;5048831;28;11038;-79
2021/11/21 03:08:14;;;;;;;;;20.50;18.50;;;;;;;;5043704;28;11085;-79
2021/11/21 03:10:42;;;;;;;;;14.25;12.75;;;;;;;;5037276;28;11979;-79
2021/11/21 03:13:11;;;;;;;;;15.00;15.00;;;;;;;;5044216;28;11248;-80
2021/11/21 03:15:38;;;;;;;;;19.00;15.50;;;;;;;;5046150;28;11262;-79
2021/11/21 03:18:06;;;;;;;;;13.50;13.50;;;;;;;;5045330;28;11067;-79
2021/11/21 03:20:35;;;;;;;;;19.25;16.75;;;;;;;;5046407;28;11259;-80
2021/11/21 03:23:04;;;;;;;;;11.00;9.25;;;;;;;;5043633;28;10970;-80
2021/11/21 03:25:31;;;;;;;;;17.25;17.25;;;;;;;;5046228;28;11052;-80
2021/11/21 03:27:58;;;;;;;;;20.75;17.00;;;;;;;;5024101;28;11167;-79
2021/11/21 03:30:27;;;;;;;;;18.00;14.75;;;;;;;;5034458;28;11091;-79
2021/11/21 03:32:55;;;;;;;;;21.75;19.75;;;;;;;;5044959;28;11298;-79
2021/11/21 03:35:24;;;;;;;;;23.50;21.25;;;;;;;;5045335;28;11149;-79
2021/11/21 03:37:51;;;;;;;;;20.25;16.25;;;;;;;;5044314;28;11126;-79
2021/11/21 03:40:20;;;;;;;;;22.50;17.75;;;;;;;;5044239;28;11090;-79
2021/11/21 03:42:48;;;;;;;;;16.00;14.75;;;;;;;;5040541;28;11084;-79
2021/11/21 03:45:17;;;;;;;;;16.25;14.25;;;;;;;;5044219;28;11103;-79
2021/11/21 03:47:47;;;;;;;;;22.25;17.75;;;;;;;;5044728;28;10848;-79
2021/11/21 03:50:15;;;;;;;;;25.50;22.50;;;;;;;;5027698;28;11034;-78
2021/11/21 03:52:44;;;;;;;;;22.25;17.75;;;;;;;;5043030;28;11678;-79
2021/11/21 03:55:13;;;;;;;;;23.25;18.00;;;;;;;;5046042;28;11729;-79
2021/11/21 03:57:40;;;;;;;;;24.25;19.25;;;;;;;;5041422;28;10985;-79
2021/11/21 04:00:12;;;;;;;;;20.00;17.75;;;;;;;;5043359;28;11080;-79
2021/11/21 04:02:40;;;;;;;;;20.00;20.00;;;;;;;;5022213;28;10903;-79
2021/11/21 04:05:10;;;;;;;;;25.00;21.50;;;;;;;;5043352;28;11061;-79
2021/11/21 04:07:37;;;;;;;;;18.00;18.00;;;;;;;;5045683;28;11828;-78
2021/11/21 04:10:05;;;;;;;;;15.25;13.75;;;;;;;;5044393;28;11104;-78
2021/11/21 04:12:32;;;;;;;;;18.25;17.00;;;;;;;;5034784;28;11082;-78
2021/11/21 04:15:00;;;;;;;;;20.00;18.00;;;;;;;;5044438;28;11051;-79
2021/11/21 04:17:28;;;;;;;;;16.00;14.25;;;;;;;;5044438;28;11866;-79
2021/11/21 04:19:55;;;;;;;;;20.00;15.50;;;;;;;;5044857;28;10977;-78
2021/11/21 04:22:24;;;;;;;;;21.25;21.25;;;;;;;;5039292;28;11016;-79
2021/11/21 04:24:52;;;;;;;;;15.00;12.25;;;;;;;;5044806;28;10996;-79
2021/11/21 04:27:20;;;;;;;;;21.75;15.25;;;;;;;;5043415;28;10813;-79
2021/11/21 04:29:47;;;;;;;;;15.75;13.50;;;;;;;;5045439;28;11020;-79
2021/11/21 04:32:15;;;;;;;;;16.25;15.00;;;;;;;;5042055;28;10826;-80
2021/11/21 04:34:42;;;;;;;;;18.75;17.25;;;;;;;;5040207;28;10873;-80
2021/11/21 04:37:10;;;;;;;;;13.00;13.00;;;;;;;;5040021;28;11694;-79
2021/11/21 04:39:38;;;;;;;;;15.25;13.25;;;;;;;;5037084;28;10913;-78
2021/11/21 04:42:06;;;;;;;;;17.00;14.25;;;;;;;;5041281;28;10856;-79
2021/11/21 04:44:33;;;;;;;;;15.25;15.25;;;;;;;;5042735;28;11856;-79
2021/11/21 04:47:01;;;;;;;;;23.00;13.75;;;;;;;;5025872;28;10901;-79
2021/11/21 04:49:28;;;;;;;;;15.50;15.50;;;;;;;;5021136;28;11024;-78
2021/11/21 04:51:57;;;;;;;;;12.00;10.00;;;;;;;;5026300;28;10898;-78
2021/11/21 04:54:26;;;;;;;;;16.50;12.50;;;;;;;;5043944;28;10956;-78
2021/11/21 04:56:55;;;;;;;;;12.50;11.50;;;;;;;;5043524;28;10993;-79
2021/11/21 04:59:22;;;;;;;;;17.75;14.75;;;;;;;;5043108;28;10846;-79
2021/11/21 05:01:50;;;;;;;;;15.75;11.75;;;;;;;;5039980;28;10919;-79
2021/11/21 05:04:18;;;;;;;;;17.25;17.00;;;;;;;;5044277;28;10736;-79
2021/11/21 05:06:45;;;;;;;;;12.25;12.25;;;;;;;;5041157;28;10965;-80
2021/11/21 05:09:12;;;;;;;;;12.50;12.50;;;;;;;;5033617;28;10927;-80
2021/11/21 05:11:39;;;;;;;;;13.25;11.75;;;;;;;;5045418;28;10793;-79
2021/11/21 05:14:08;;;;;;;;;15.25;13.50;;;;;;;;5043139;28;10912;-79
2021/11/21 05:16:37;;;;;;;;;15.75;11.75;;;;;;;;5045908;28;11083;-79
2021/11/21 05:19:05;;;;;;;;;15.75;13.00;;;;;;;;5043243;28;10994;-79
2021/11/21 05:21:32;;;;;;;;;15.25;12.50;;;;;;;;5044447;28;10941;-79
2021/11/21 05:24:00;;;;;;;;;19.00;14.00;;;;;;;;5041995;28;10934;-79
2021/11/21 05:26:28;;;;;;;;;13.50;10.75;;;;;;;;5041362;28;10934;-79
2021/11/21 05:28:56;;;;;;;;;14.00;9.75;;;;;;;;5025473;28;10892;-79
2021/11/21 05:31:25;;;;;;;;;11.50;10.50;;;;;;;;5041413;28;12002;-79
2021/11/21 05:33:53;;;;;;;;;14.25;13.00;;;;;;;;5018563;28;11015;-79
2021/11/21 05:36:21;;;;;;;;;13.50;11.25;;;;;;;;5041517;28;10976;-79
2021/11/21 05:38:48;;;;;;;;;10.25;9.25;;;;;;;;5045771;28;10939;-79
2021/11/21 05:41:15;;;;;;;;;14.50;12.00;;;;;;;;5042532;28;10877;-79
2021/11/21 05:43:43;;;;;;;;;7.75;7.00;;;;;;;;5042605;28;10967;-80
2021/11/21 05:46:10;;;;;;;;;14.25;12.25;;;;;;;;5041833;28;10923;-80
2021/11/21 05:48:39;;;;;;;;;18.25;18.00;;;;;;;;5041922;28;10884;-80
2021/11/21 05:51:06;;;;;;;;;11.25;6.00;;;;;;;;5042695;28;11046;-79
2021/11/21 05:53:33;;;;;;;;;17.00;16.50;;;;;;;;5042285;28;10767;-79
2021/11/21 05:56:01;;;;;;;;;11.75;9.75;;;;;;;;5040484;28;11045;-79
2021/11/21 05:58:28;;;;;;;;;12.50;12.25;;;;;;;;5042046;28;11701;-79
2021/11/21 06:00:57;;;;;;;;;13.00;10.50;;;;;;;;5033001;28;10818;-79
2021/11/21 06:03:24;;;;;;;;;10.25;10.25;;;;;;;;5040196;28;10844;-79
2021/11/21 06:05:53;;;;;;;;;13.25;13.25;;;;;;;;5033054;28;10983;-78
2021/11/21 06:08:20;;;;;;;;;14.75;10.00;;;;;;;;5042682;28;11064;-78
2021/11/21 06:10:48;;;;;;;;;14.75;12.75;;;;;;;;5042881;28;10854;-78
2021/11/21 06:13:16;;;;;;;;;15.50;12.00;;;;;;;;5019884;28;10943;-78
2021/11/21 06:15:44;;;;;;;;;10.00;9.25;;;;;;;;5041162;28;10951;-78
2021/11/21 06:18:11;;;;;;;;;11.00;11.00;;;;;;;;5038423;28;10778;-80
2021/11/21 06:20:39;;;;;;;;;14.00;10.50;;;;;;;;5042093;28;10913;-77
2021/11/21 06:23:09;;;;;;;;;5.50;5.50;;;;;;;;5047647;28;10977;-78
2021/11/21 06:25:36;;;;;;;;;11.25;11.25;;;;;;;;5043894;28;10779;-79
2021/11/21 06:28:04;;;;;;;;;13.75;10.75;;;;;;;;5045811;28;10849;-78
2021/11/21 06:30:31;;;;;;;;;14.25;10.00;;;;;;;;5044985;28;10722;-79
2021/11/21 06:32:59;;;;;;;;;14.75;11.00;;;;;;;;5042126;28;10851;-77
2021/11/21 06:35:26;;;;;;;;;11.25;10.00;;;;;;;;5045076;28;10720;-76
2021/11/21 06:37:53;;;;;;;;;11.25;11.00;;;;;;;;5041116;28;10875;-79
2021/11/21 06:40:22;;;;;;;;;13.00;13.00;;;;;;;;5031585;28;10873;-77
2021/11/21 06:42:49;;;;;;;;;13.50;11.25;;;;;;;;5043240;28;10909;-75
2021/11/21 06:45:17;;;;;;;;;13.00;11.25;;;;;;;;5045026;28;10938;-78
2021/11/21 06:47:44;;;;;;;;;12.75;10.50;;;;;;;;5042921;28;10778;-79
2021/11/21 06:50:14;;;;;;;;;13.75;13.75;;;;;;;;5043681;28;11649;-77
2021/11/21 06:52:42;;;;;;;;;12.25;12.25;;;;;;;;5044276;28;10901;-76
2021/11/21 06:55:12;;;;;;;;;15.75;13.75;;;;;;;;5026431;28;10791;-77
2021/11/21 06:57:41;;;;;;;;;20.25;14.25;;;;;;;;5044526;28;11033;-76
2021/11/21 07:00:12;;;;;;;;;11.75;11.75;;;;;;;;5037884;28;10743;-83
2021/11/21 07:02:39;;;;;;;;;11.50;11.50;;;;;;;;5040717;28;11571;-77
2021/11/21 07:05:08;;;;;;;;;13.75;12.00;;;;;;;;5042810;28;10602;-78
2021/11/21 07:07:35;;;;;;;;;15.00;12.25;;;;;;;;5040578;28;10666;-75
2021/11/21 07:10:02;;;;;;;;;11.25;7.75;;;;;;;;5044799;28;11356;-81
2021/11/21 07:12:30;;;;;;;;;12.50;11.25;;;;;;;;5043958;28;10642;-83
2021/11/21 07:14:59;;;;;;;;;16.00;14.25;;;;;;;;5025858;28;11361;-83
2021/11/21 07:17:26;;;;;;;;;7.50;7.50;;;;;;;;5041167;28;10580;-76
2021/11/21 07:19:53;;;;;;;;;14.00;14.00;;;;;;;;5046357;28;10569;-80
2021/11/21 07:22:21;;;;;;;;;18.50;13.25;;;;;;;;5044520;28;10572;-88
2021/11/21 07:24:48;;;;;;;;;12.25;10.00;;;;;;;;5044867;28;10596;-75
2021/11/21 07:27:16;;;;;;;;;11.75;11.75;;;;;;;;5044638;28;10567;-74
2021/11/21 07:29:43;;;;;;;;;15.25;11.25;;;;;;;;5039929;28;10689;-73
2021/11/21 07:32:12;;;;;;;;;20.25;16.50;;;;;;;;5042972;28;10720;-70
2021/11/21 07:34:39;;;;;;;;;17.00;15.50;;;;;;;;5020855;28;10704;-74
2021/11/21 07:37:07;;;;;;;;;11.50;9.50;;;;;;;;5043569;28;10774;-77
2021/11/21 07:39:34;;;;;;;;;15.75;15.00;;;;;;;;5045551;28;11343;-74
2021/11/21 07:42:02;;;;;;;;;15.25;15.25;;;;;;;;5042104;28;10783;-77
2021/11/21 07:44:29;;;;;;;;;16.25;14.50;;;;;;;;5044961;28;10566;-79
2021/11/21 07:46:58;;;;;;;;;15.25;11.25;;;;;;;;5044414;28;10783;-71
2021/11/21 07:49:26;;;;;;;;;18.00;13.25;;;;;;;;5042417;28;10684;-74
2021/11/21 07:51:53;;;;;;;;;20.00;11.50;;;;;;;;5045984;28;10703;-74
2021/11/21 07:54:21;;;;;;;;;17.00;12.50;;;;;;;;5044805;28;10565;-74
2021/11/21 07:56:48;;;;;;;;;21.00;16.25;;;;;;;;5043490;28;11521;-74
2021/11/21 07:59:15;;;;;;;;;16.50;16.50;;;;;;;;5040498;28;10658;-71
2021/11/21 08:01:42;;;;;;;;;16.50;16.50;;;;;;;;5042572;28;10620;-75
2021/11/21 08:04:10;;;;;;;;;19.25;15.25;;;;;;;;5041359;28;10536;-74
2021/11/21 08:06:39;;;;;;;;;12.00;12.00;;;;;;;;5043816;28;10896;-74
2021/11/21 08:09:06;;;;;;;;;15.00;15.00;;;;;;;;5039466;28;10775;-71
2021/11/21 08:11:33;;;;;;;;;15.50;12.50;;;;;;;;5045683;28;10762;-77
2021/11/21 08:14:00;;;;;;;;;15.50;14.75;;;;;;;;5042729;28;10590;-74
2021/11/21 08:16:27;;;;;;;;;12.00;10.50;;;;;;;;5041414;28;10516;-73
2021/11/21 08:18:55;;;;;;;;;14.75;14.75;;;;;;;;5042600;28;10652;-75
2021/11/21 08:21:22;;;;;;;;;13.50;13.50;;;;;;;;5042808;28;10467;-71
2021/11/21 08:23:51;;;;;;;;;17.25;17.00;;;;;;;;5043191;28;10528;-74
2021/11/21 08:26:18;;;;;;;;;16.00;15.25;;;;;;;;5041214;28;10576;-76
2021/11/21 08:28:45;;;;;;;;;24.50;15.25;;;;;;;;5049681;28;10520;-72
2021/11/21 08:31:12;;;;;;;;;21.50;15.50;;;;;;;;5043366;28;10533;-75
2021/11/21 08:33:40;;;;;;;;;20.25;19.00;;;;;;;;5041085;28;10446;-74
2021/11/21 08:36:07;;;;;;;;;19.50;13.50;;;;;;;;5040623;28;10544;-73
2021/11/21 08:38:34;;;;;;;;;24.25;20.25;;;;;;;;5042067;28;10615;-74
2021/11/21 08:41:03;;;;;;;;;19.25;16.50;;;;;;;;5042910;28;10510;-73
2021/11/21 08:43:31;;;;;;;;;23.75;21.75;;;;;;;;5037407;28;10374;-77
2021/11/21 08:45:58;;;;;;;;;19.75;15.50;;;;;;;;5025397;28;10957;-73
2021/11/21 08:48:25;;;;;;;;;15.75;13.25;;;;;;;;5039731;28;10416;-74
2021/11/21 08:50:54;;;;;;;;;13.00;10.25;;;;;;;;5037831;28;11137;-75
2021/11/21 08:53:21;;;;;;;;;17.00;17.00;;;;;;;;5038299;28;11199;-75
2021/11/21 08:55:48;;;;;;;;;16.25;14.50;;;;;;;;5040726;28;10216;-74
2021/11/21 08:58:17;;;;;;;;;16.25;16.25;;;;;;;;5038132;28;10347;-71
2021/11/21 09:00:45;;;;;;;;;19.00;17.25;;;;;;;;5038205;28;10313;-75
2021/11/21 09:03:12;;;;;;;;;20.25;17.00;;;;;;;;5034802;28;10286;-75
2021/11/21 09:05:40;;;;;;;;;17.50;16.25;;;;;;;;5041217;28;10438;-76
2021/11/21 09:08:07;;;;;;;;;18.50;15.75;;;;;;;;5040510;28;10351;-76
2021/11/21 09:10:34;;;;;;;;;21.25;15.00;;;;;;;;5042548;28;11322;-74
2021/11/21 09:13:02;;;;;;;;;23.00;20.25;;;;;;;;5043749;28;10442;-74
2021/11/21 09:15:31;;;;;;;;;16.25;14.50;;;;;;;;5041798;28;10357;-73
2021/11/21 09:17:58;;;;;;;;;14.75;14.75;;;;;;;;5042081;28;10450;-74
2021/11/21 09:20:26;;;;;;;;;19.25;17.25;;;;;;;;5043212;28;11274;-74
2021/11/21 09:22:54;;;;;;;;;19.25;17.50;;;;;;;;5039697;28;10513;-74
2021/11/21 09:25:22;;;;;;;;;19.50;17.50;;;;;;;;5041757;28;10568;-74
2021/11/21 09:27:50;;;;;;;;;24.00;17.25;;;;;;;;5033386;28;10482;-74
2021/11/21 09:30:17;;;;;;;;;17.00;17.00;;;;;;;;5041533;28;10438;-74
2021/11/21 09:32:46;;;;;;;;;14.25;11.75;;;;;;;;5041890;28;10281;-74
2021/11/21 09:35:13;;;;;;;;;19.00;19.00;;;;;;;;5041635;28;10325;-74
2021/11/21 09:37:41;;;;;;;;;21.50;21.50;;;;;;;;5025850;28;10310;-74
2021/11/21 09:40:12;;;;;;;;;20.00;20.00;;;;;;;;5052690;28;10323;-74
2021/11/21 09:42:40;;;;;;;;;18.50;18.50;;;;;;;;5037991;28;10354;-74
2021/11/21 09:45:09;;;;;;;;;16.75;15.50;;;;;;;;5039010;28;10279;-74
2021/11/21 09:47:36;;;;;;;;;21.25;21.00;;;;;;;;5040363;28;10395;-74
2021/11/21 09:50:08;;;;;;;;;20.50;18.75;;;;;;;;5039254;28;10273;-73
2021/11/21 09:52:37;;;;;;;;;18.75;18.75;;;;;;;;5040067;28;10413;-74
2021/11/21 09:55:05;;;;;;;;;19.50;16.50;;;;;;;;5040766;28;10210;-76
2021/11/21 09:57:32;;;;;;;;;17.75;15.50;;;;;;;;5037011;28;10285;-74
2021/11/21 10:00:02;;;;;;;;;18.75;17.00;;;;;;;;5040567;28;10201;-73
2021/11/21 10:02:31;;;;;;;;;15.75;13.00;;;;;;;;5037761;28;10170;-74
2021/11/21 10:05:10;;;;;;;;;17.25;15.25;;;;;;;;5039821;28;10184;-73
2021/11/21 10:07:39;;;;;;;;;16.25;12.75;;;;;;;;5038972;28;10192;-74
2021/11/21 10:10:11;;;;;;;;;20.25;18.25;;;;;;;;5035614;28;10081;-73
2021/11/21 10:12:40;;;;;;;;;14.75;14.75;;;;;;;;5034678;28;10892;-72
2021/11/21 10:15:09;;;;;;;;;20.25;17.50;;;;;;;;5034286;28;10148;-76
2021/11/21 10:17:39;;;;;;;;;14.75;13.50;;;;;;;;5040333;28;10258;-78
2021/11/21 10:20:19;;;;;;;;;18.75;18.75;;;;;;;;5017739;28;10602;-76
2021/11/21 10:22:51;;;;;;;;;16.75;16.25;;;;;;;;5038923;28;10097;-79
2021/11/21 10:25:42;;;;;;;;;12.00;11.75;;;;;;;;5038955;28;10205;-76
2021/11/21 10:28:12;;;;;;;;;12.25;11.50;;;;;;;;5037459;28;10901;-74
2021/11/21 10:31:05;;;;;;;;;16.75;12.50;;;;;;;;5040063;28;10103;-76
2021/11/21 10:33:35;;;;;;;;;16.00;11.00;;;;;;;;5039704;28;10121;-73
2021/11/21 10:36:05;;;;;;;;;15.25;15.00;;;;;;;;5037900;28;10053;-77
2021/11/21 10:38:37;;;;;;;;;21.25;21.25;;;;;;;;5036369;28;10185;-79
2021/11/21 10:41:10;;;;;;;;;16.00;13.75;;;;;;;;5037040;28;11442;-75
2021/11/21 10:43:59;;;;;;;;;21.25;21.25;;;;;;;;5036278;28;10231;-74
2021/11/21 10:46:33;;;;;;;;;22.25;17.50;;;;;;;;5029429;28;10287;-75
2021/11/21 10:49:21;;;;;;;;;13.50;11.25;;;;;;;;5030326;28;10251;-77
2021/11/21 10:51:51;;;;;;;;;11.25;11.25;;;;;;;;5020822;28;10792;-75
2021/11/21 10:54:25;;;;;;;;;12.75;12.75;;;;;;;;5039351;28;10368;-76
2021/11/21 10:56:53;;;;;;;;;13.00;12.50;;;;;;;;5039819;28;10252;-73
2021/11/21 10:59:36;;;;;;;;;16.75;16.75;;;;;;;;5035636;28;9960;-74
2021/11/21 11:02:08;;;;;;;;;14.75;12.50;;;;;;;;5029564;28;10008;-75
2021/11/21 11:04:36;;;;;;;;;15.00;13.50;;;;;;;;5035951;28;10035;-76
2021/11/21 11:07:18;;;;;;;;;15.50;14.75;;;;;;;;5037374;28;10063;-77
2021/11/21 11:09:46;;;;;;;;;15.25;14.50;;;;;;;;5043682;28;10162;-77
2021/11/21 11:12:14;;;;;;;;;19.50;18.00;;;;;;;;5040986;28;10079;-78
2021/11/21 11:14:41;;;;;;;;;19.00;17.00;;;;;;;;5042158;28;10141;-79
2021/11/21 11:17:08;;;;;;;;;16.25;14.25;;;;;;;;5041432;28;10100;-74
2021/11/21 11:19:36;;;;;;;;;15.75;15.00;;;;;;;;5042797;28;10269;-78
2021/11/21 11:22:05;;;;;;;;;21.00;17.50;;;;;;;;5024815;28;9976;-78
2021/11/21 11:24:36;;;;;;;;;12.50;12.50;;;;;;;;5041044;28;10427;-78
2021/11/21 11:27:10;;;;;;;;;21.75;17.75;;;;;;;;5043778;28;9909;-77
2021/11/21 11:29:40;;;;;;;;;16.75;13.75;;;;;;;;5043930;28;10740;-77
2021/11/21 11:32:31;;;;;;;;;9.25;9.25;;;;;;;;5041262;28;10070;-76
2021/11/21 11:34:59;;;;;;;;;13.00;13.00;;;;;;;;5037724;28;9790;-77
2021/11/21 11:37:41;;;;;;;;;22.00;17.75;;;;;;;;5042245;28;10159;-76
2021/11/21 11:40:44;;;;;;;;;16.25;13.50;;;;;;;;5044773;28;10111;-78
2021/11/21 11:43:32;;;;;;;;;15.50;12.00;;;;;;;;5038062;28;10158;-78
2021/11/21 11:46:02;;;;;;;;;25.25;22.25;;;;;;;;5038070;28;10031;-78
2021/11/21 11:48:40;;;;;;;;;21.25;20.75;;;;;;;;5040713;28;10491;-75
2021/11/21 11:51:10;;;;;;;;;5.25;5.25;;;;;;;;5039883;28;10281;-77
2021/11/21 11:53:40;;;;;;;;;22.25;22.25;;;;;;;;5040536;28;9974;-77
2021/11/21 11:56:19;;;;;;;;;20.00;18.25;;;;;;;;5038247;28;10427;-78
2021/11/21 11:58:51;;;;;;;;;25.00;22.25;;;;;;;;5033932;28;10220;-77
2021/11/21 12:02:07;;;;;;;;;34.00;26.50;;;;;;;;5039350;28;10068;-75
2021/11/21 12:05:04;;;;;;;;;22.00;22.00;;;;;;;;5039713;28;10801;-76
2021/11/21 12:07:39;;;;;;;;;22.00;21.00;;;;;;;;5005696;28;10380;-76
2021/11/21 12:10:18;;;;;;;;;30.50;28.00;;;;;;;;5041530;28;10546;-76
2021/11/21 12:13:28;;;;;;;;;38.75;36.25;;;;;;;;5037991;28;10927;-75
2021/11/21 12:16:00;;;;;;;;;27.00;25.25;;;;;;;;4978130;28;11384;-79
2021/11/21 12:18:57;;;;;;;;;42.75;39.25;;;;;;;;5013743;28;10614;-78
2021/11/21 12:21:38;;;;;;;;;32.25;31.00;;;;;;;;5037243;28;11000;-80
2021/11/21 12:24:09;;;;;;;;;30.50;30.50;;;;;;;;5040746;28;10852;-75
2021/11/21 12:26:41;;;;;;;;;28.00;28.00;;;;;;;;5041220;28;10752;-76
2021/11/21 12:29:11;;;;;;;;;28.75;27.50;;;;;;;;5023616;28;10589;-76
2021/11/21 12:31:42;;;;;;;;;24.25;20.50;;;;;;;;5038634;28;10534;-80
2021/11/21 12:34:39;;;;;;;;;22.25;22.25;;;;;;;;5040032;28;10739;-80
2021/11/21 12:37:19;;;;;;;;;19.25;18.75;;;;;;;;5030258;28;10674;-80
2021/11/21 12:39:50;;;;;;;;;30.75;30.75;;;;;;;;5036031;28;10618;-80
2021/11/21 12:42:20;;;;;;;;;23.50;22.50;;;;;;;;5038078;28;10707;-81
2021/11/21 12:44:47;;;;;;;;;28.50;26.50;;;;;;;;5048408;28;11620;-80
2021/11/21 12:47:16;;;;;;;;;21.50;19.25;;;;;;;;5037719;28;10743;-81
2021/11/21 12:49:45;;;;;;;;;30.00;30.00;;;;;;;;5040513;28;10509;-80
2021/11/21 12:52:14;;;;;;;;;15.00;15.00;;;;;;;;5037737;28;10636;-78
2021/11/21 12:54:42;;;;;;;;;16.25;16.25;;;;;;;;5038422;28;10105;-83
2021/11/21 12:57:12;;;;;;;;;14.25;14.25;;;;;;;;5041237;28;10253;-81
2021/11/21 12:59:51;;;;;;;;;14.25;13.00;;;;;;;;5040573;28;10312;-78
2021/11/21 13:02:22;;;;;;;;;20.75;20.75;;;;;;;;5036227;28;10157;-77
2021/11/21 13:04:56;;;;;;;;;17.00;17.00;;;;;;;;5040156;28;10594;-79
2021/11/21 13:07:35;;;;;;;;;16.75;14.75;;;;;;;;5017309;28;10427;-78
2021/11/21 13:10:10;;;;;;;;;12.50;12.50;;;;;;;;5040827;28;10369;-81
2021/11/21 13:12:41;;;;;;;;;8.50;6.50;;;;;;;;5040902;28;10723;-77
2021/11/21 13:15:12;;;;;;;;;7.00;4.50;;;;;;;;5041007;28;10053;-80
2021/11/21 13:17:42;;;;;;;;;7.25;6.75;;;;;;;;5046455;28;10118;-77
2021/11/21 13:20:15;;;;;;;;;11.50;11.50;;;;;;;;5041445;28;10071;-79
2021/11/21 13:22:55;;;;;;;;;17.50;14.75;;;;;;;;5039964;28;10109;-80
2021/11/21 13:25:43;;;;;;;;;6.25;6.25;;;;;;;;5041441;28;10255;-76
2021/11/21 13:28:47;;;;;;;;;3.25;3.25;;;;;;;;5036768;28;9828;-80
2021/11/21 13:31:23;;;;;;;;;5.25;3.00;;;;;;;;4958846;28;9625;-80
2021/11/21 13:33:55;;;;;;;;;3.00;3.00;;;;;;;;4977824;28;9595;-79
2021/11/21 13:36:30;;;;;;;;;5.50;3.75;;;;;;;;5016009;28;9635;-77
2021/11/21 13:39:01;;;;;;;;;2.75;2.75;;;;;;;;5043358;28;9895;-76
2021/11/21 13:41:29;;;;;;;;;7.25;6.75;;;;;;;;5040796;28;10677;-76
2021/11/21 13:44:09;;;;;;;;;6.00;3.00;;;;;;;;5039527;28;9960;-74
2021/11/21 13:46:39;;;;;;;;;7.00;7.00;;;;;;;;5022314;28;9919;-76
2021/11/21 13:49:22;;;;;;;;;6.75;6.75;;;;;;;;5020865;28;9975;-77
2021/11/21 13:52:00;;;;;;;;;5.75;4.25;;;;;;;;5035734;28;9882;-77
2021/11/21 13:54:30;;;;;;;;;15.50;15.50;;;;;;;;5036580;28;10021;-78
2021/11/21 13:56:58;;;;;;;;;5.75;2.50;;;;;;;;5034881;28;10289;-72
2021/11/21 13:59:32;;;;;;;;;9.25;8.00;;;;;;;;5043390;28;10603;-76
2021/11/21 14:01:59;;;;;;;;;12.25;12.25;;;;;;;;5022166;28;10003;-77
2021/11/21 14:04:36;;;;;;;;;12.00;12.00;;;;;;;;5043966;28;10147;-77
2021/11/21 14:07:11;;;;;;;;;7.00;7.00;;;;;;;;5040547;28;10066;-78
2021/11/21 14:09:53;;;;;;;;;5.75;5.75;;;;;;;;5037601;28;10027;-78
2021/11/21 14:12:21;;;;;;;;;6.00;6.00;;;;;;;;5024553;28;10040;-78
2021/11/21 14:15:06;;;;;;;;;4.25;4.25;;;;;;;;5040861;28;10956;-77
2021/11/21 14:17:39;;;;;;;;;2.00;2.00;;;;;;;;5024150;28;10010;-78
2021/11/21 14:20:10;;;;;;;;;3.25;3.25;;;;;;;;5041104;28;9825;-78
2021/11/21 14:22:41;;;;;;;;;3.00;3.00;;;;;;;;5040805;28;9887;-77
2021/11/21 14:25:09;;;;;;;;;7.50;4.25;;;;;;;;5024592;28;9827;-77
2021/11/21 14:27:37;;;;;;;;;5.50;5.50;;;;;;;;5040473;28;9871;-77
2021/11/21 14:30:07;;;;;;;;;7.75;7.75;;;;;;;;5041392;28;9860;-78
2021/11/21 14:32:35;;;;;;;;;4.25;4.25;;;;;;;;5022809;28;10102;-77
2021/11/21 14:35:18;;;;;;;;;3.00;3.00;;;;;;;;5041264;28;9806;-78
2021/11/21 14:37:45;;;;;;;;;5.25;2.00;;;;;;;;5042374;28;9742;-77
2021/11/21 14:40:14;;;;;;;;;4.25;4.25;;;;;;;;5041555;28;9687;-78